Kathy C — 2CTI7 — position and weather

sailwx.info

Track history (hours):
 
Tides and Currents Weather Stations Pressure Air Temp Water Temp Dewpoint Dewpoint Depression Visibility Wind Speed Wind Dir Waves Ship Positions

Kathy C

Last reported at 2018-Jan-18 03:30 UTC. Time now 2018-Jan-18 04:00 UTC.
Position N 49°26' E 000°15'.

Length 106 m; draft 4.6 m.

Type: Cargo ship. MMSI: 235075591.

Date/timePositionNaut miles runAvg speedWind from/ knotsBaromVisibWave heightAir tempDewpointWater temp
2018-Jan-18 03:30N 49°26' E 000°15'0 0.0
2018-Jan-18 03:00N 49°26' E 000°15'0 0.0
2018-Jan-18 02:30N 49°26' E 000°15'0 0.0
2018-Jan-18 02:00N 49°26' E 000°15'0 0.0
2018-Jan-18 01:30N 49°26' E 000°15'0 0.0
2018-Jan-18 01:00N 49°26' E 000°15'0 0.0
2018-Jan-18 00:00N 49°26' E 000°15'0 0.1
2018-Jan-17 23:57N 49°26' E 000°15'  
2018-Jan-12 09:50N 39°17' W 009°55'3 9.8
2018-Jan-12 09:30N 39°14' W 009°55'5 9.5
2018-Jan-12 08:58N 39°09' W 009°55'4 9.5
2018-Jan-12 08:30N 39°04' W 009°55'5 9.3
2018-Jan-12 08:00N 38°60' W 009°56'5 9.4
2018-Jan-12 07:30N 38°55' W 009°56'5 9.5
2018-Jan-12 07:01N 38°50' W 009°56'4 9.0
2018-Jan-12 06:31N 38°46' W 009°56'5 8.8
2018-Jan-12 05:59N 38°41' W 009°56'4 8.7
2018-Jan-12 05:31N 38°37' W 009°54'4 8.6
2018-Jan-12 05:00N 38°33' W 009°53'4 8.7
2018-Jan-12 04:30N 38°29' W 009°51'5 8.6
2018-Jan-12 03:58N 38°24' W 009°50'246 7.8
2018-Jan-10 20:33N 35°58' W 005°42'0 6.5
2018-Jan-10 20:30N 35°58' W 005°42'4 8.3
2018-Jan-10 20:00N 35°58' W 005°37'4 7.9
2018-Jan-10 19:30N 35°58' W 005°32'4 8.0
2018-Jan-10 19:01N 35°59' W 005°27'3 6.5
2018-Jan-10 18:30N 35°59' W 005°23'4 8.2
2018-Jan-10 18:00N 35°56' W 005°20'2 4.4
2018-Jan-10 17:30N 35°54' W 005°19'0 0.1
2018-Jan-10 16:56N 35°54' W 005°19'0 0.0
2018-Jan-10 16:28N 35°54' W 005°19'0 0.0
2018-Jan-10 15:58N 35°54' W 005°19'0 0.0
2018-Jan-10 15:25N 35°54' W 005°19'0 0.0
2018-Jan-10 14:58N 35°54' W 005°19'1 1.3
2018-Jan-10 14:31N 35°54' W 005°19'1 2.2
2018-Jan-10 14:01N 35°55' W 005°18'4 7.1
2018-Jan-10 13:30N 35°56' W 005°14'230 9.0
2018-Jan-09 12:02N 37°24' W 000°49'110.1
2018-Jan-09 11:58N 37°24' W 000°48'7 9.7
2018-Jan-09 11:15N 37°29' W 000°42'4 9.6
2018-Jan-09 10:51N 37°32' W 000°38'3 9.5
2018-Jan-09 10:31N 37°34' W 000°35'5 9.6
2018-Jan-09 10:01N 37°38' W 000°31'5 9.2
2018-Jan-09 09:31N 37°42' W 000°28'5 9.2
2018-Jan-09 09:01N 37°45' W 000°25'16 9.2
2018-Jan-09 07:16N 37°58' W 000°13'  
Track history (hours):
 
Tides and Currents Weather Stations Pressure Air Temp Water Temp Dewpoint Dewpoint Depression Visibility Wind Speed Wind Dir Waves Ship Positions

Kathy C

Last reported at 2018-Jan-18 03:30 UTC. Time now 2018-Jan-18 04:00 UTC.
Position N 49°26' E 000°15'.

Length 106 m; draft 4.6 m.

Type: Cargo ship. MMSI: 235075591.

Date/timePositionNaut miles runAvg speedWind from/ knotsBaromVisibWave heightAir tempDewpointWater temp
2018-Jan-18 03:30N 49°26' E 000°15'0 0.0
2018-Jan-18 03:00N 49°26' E 000°15'0 0.0
2018-Jan-18 02:30N 49°26' E 000°15'0 0.0
2018-Jan-18 02:00N 49°26' E 000°15'0 0.0
2018-Jan-18 01:30N 49°26' E 000°15'0 0.0
2018-Jan-18 01:00N 49°26' E 000°15'0 0.0
2018-Jan-18 00:00N 49°26' E 000°15'0 0.1
2018-Jan-17 23:57N 49°26' E 000°15'  
2018-Jan-12 09:50N 39°17' W 009°55'3 9.8
2018-Jan-12 09:30N 39°14' W 009°55'5 9.5
2018-Jan-12 08:58N 39°09' W 009°55'4 9.5
2018-Jan-12 08:30N 39°04' W 009°55'5 9.3
2018-Jan-12 08:00N 38°60' W 009°56'5 9.4
2018-Jan-12 07:30N 38°55' W 009°56'5 9.5
2018-Jan-12 07:01N 38°50' W 009°56'4 9.0
2018-Jan-12 06:31N 38°46' W 009°56'5 8.8
2018-Jan-12 05:59N 38°41' W 009°56'4 8.7
2018-Jan-12 05:31N 38°37' W 009°54'4 8.6
2018-Jan-12 05:00N 38°33' W 009°53'4 8.7
2018-Jan-12 04:30N 38°29' W 009°51'5 8.6
2018-Jan-12 03:58N 38°24' W 009°50'246 7.8
2018-Jan-10 20:33N 35°58' W 005°42'0 6.5
2018-Jan-10 20:30N 35°58' W 005°42'4 8.3
2018-Jan-10 20:00N 35°58' W 005°37'4 7.9
2018-Jan-10 19:30N 35°58' W 005°32'4 8.0
2018-Jan-10 19:01N 35°59' W 005°27'3 6.5
2018-Jan-10 18:30N 35°59' W 005°23'4 8.2
2018-Jan-10 18:00N 35°56' W 005°20'2 4.4
2018-Jan-10 17:30N 35°54' W 005°19'0 0.1
2018-Jan-10 16:56N 35°54' W 005°19'0 0.0
2018-Jan-10 16:28N 35°54' W 005°19'0 0.0
2018-Jan-10 15:58N 35°54' W 005°19'0 0.0
2018-Jan-10 15:25N 35°54' W 005°19'0 0.0
2018-Jan-10 14:58N 35°54' W 005°19'1 1.3
2018-Jan-10 14:31N 35°54' W 005°19'1 2.2
2018-Jan-10 14:01N 35°55' W 005°18'4 7.1
2018-Jan-10 13:30N 35°56' W 005°14'230 9.0
2018-Jan-09 12:02N 37°24' W 000°49'110.1
2018-Jan-09 11:58N 37°24' W 000°48'7 9.7
2018-Jan-09 11:15N 37°29' W 000°42'4 9.6
2018-Jan-09 10:51N 37°32' W 000°38'3 9.5
2018-Jan-09 10:31N 37°34' W 000°35'5 9.6
2018-Jan-09 10:01N 37°38' W 000°31'5 9.2
2018-Jan-09 09:31N 37°42' W 000°28'5 9.2
2018-Jan-09 09:01N 37°45' W 000°25'16 9.2
2018-Jan-09 07:16N 37°58' W 000°13'  

Dump ship's entire track history